Time;durP1;ratioP1;P1;durP2;ratioP2;P2;SDS_P1;SDS_P2;PMS_P1;PMS_P2;Temp;Humidity;BMP_temperature;BMP_pressure;BME280_temperature;BME280_humidity;BME280_pressure;Samples;Min_cycle;Max_cycle;Signal;HPM_P1;HPM_P2
2024/04/02 00:01:24;;;;;;;0.63;0.30;;;10.50;99.90;10.40;99162.00;;;;4891712;28;92977;-68
2024/04/02 00:03:50;;;;;;;0.30;0.30;;;10.50;99.90;10.40;99163.00;;;;4892438;28;121079;-68
2024/04/02 00:06:15;;;;;;;0.90;0.30;;;10.50;99.90;10.40;99171.00;;;;4892457;28;93896;-66
2024/04/02 00:08:41;;;;;;;0.87;0.20;;;10.50;99.90;10.40;99172.00;;;;4891433;28;110602;-66
2024/04/02 00:11:06;;;;;;;0.77;0.47;;;10.50;99.90;10.40;99167.00;;;;4891493;28;93868;-66
2024/04/02 00:13:34;;;;;;;0.50;0.40;;;10.40;99.90;10.30;99173.00;;;;4889475;28;123062;-67
2024/04/02 00:16:00;;;;;;;0.40;0.23;;;10.40;99.90;10.30;99172.00;;;;4892365;28;93453;-67
2024/04/02 00:18:26;;;;;;;0.40;0.30;;;10.40;99.90;10.30;99173.00;;;;4893248;28;92940;-66
2024/04/02 00:20:53;;;;;;;0.20;0.20;;;10.40;99.90;10.30;99172.00;;;;4894210;28;92917;-66
2024/04/02 00:23:19;;;;;;;0.30;0.30;;;10.40;99.90;10.30;99160.00;;;;4889345;28;115430;-67
2024/04/02 00:25:45;;;;;;;0.10;0.10;;;10.40;99.90;10.30;99168.00;;;;4893827;28;123221;-66
2024/04/02 00:28:11;;;;;;;0.20;0.20;;;10.40;99.90;10.30;99162.00;;;;4893069;28;92258;-67
2024/04/02 00:30:38;;;;;;;0.93;0.30;;;10.40;99.80;10.30;99156.00;;;;4892479;28;92883;-66
2024/04/02 00:33:04;;;;;;;0.27;0.27;;;10.40;99.70;10.30;99156.00;;;;4890297;28;103635;-67
2024/04/02 00:35:30;;;;;;;0.20;0.20;;;10.40;99.60;10.30;99160.00;;;;4893109;28;95472;-67
2024/04/02 00:37:56;;;;;;;0.10;0.10;;;10.40;99.60;10.30;99163.00;;;;4893157;28;109718;-68
2024/04/02 00:40:22;;;;;;;0.50;0.40;;;10.30;99.50;10.30;99166.00;;;;4892966;28;93083;-66
2024/04/02 00:42:48;;;;;;;0.30;0.30;;;10.40;99.60;10.30;99165.00;;;;4891972;28;121846;-67
2024/04/02 00:45:14;;;;;;;0.37;0.37;;;10.30;99.50;10.30;99158.00;;;;4890895;28;93162;-67
2024/04/02 00:47:41;;;;;;;0.20;0.20;;;10.30;99.40;10.30;99163.00;;;;4893934;28;92903;-66
2024/04/02 00:50:10;;;;;;;0.30;0.30;;;10.30;99.80;10.30;99156.00;;;;4895288;28;92851;-67
2024/04/02 00:52:36;;;;;;;0.67;0.40;;;10.30;99.40;10.20;99168.00;;;;4892185;28;93497;-66
2024/04/02 00:55:02;;;;;;;1.23;0.50;;;10.30;99.40;10.20;99158.00;;;;4892538;28;121488;-66
2024/04/02 00:57:28;;;;;;;0.27;0.27;;;10.30;99.40;10.20;99153.00;;;;4892371;28;93163;-67
2024/04/02 00:59:54;;;;;;;0.43;0.30;;;10.30;99.30;10.20;99173.00;;;;4892564;28;93991;-67
2024/04/02 01:02:20;;;;;;;0.20;0.20;;;10.30;99.40;10.20;99161.00;;;;4893137;28;94132;-67
2024/04/02 01:04:47;;;;;;;0.20;0.20;;;10.30;99.40;10.20;99160.00;;;;4888854;28;121677;-67
2024/04/02 01:07:14;;;;;;;0.57;0.30;;;10.20;99.30;10.10;99163.00;;;;4890620;28;93331;-68
2024/04/02 01:09:42;;;;;;;0.10;0.10;;;10.20;99.20;10.10;99165.00;;;;4890905;28;92991;-66
2024/04/02 01:12:08;;;;;;;1.50;0.37;;;10.20;99.20;10.00;99165.00;;;;4889643;28;113392;-67
2024/04/02 01:14:43;;;;;;;0.40;0.27;;;10.10;99.20;9.90;99169.00;;;;4891268;28;108679;-66
2024/04/02 01:17:09;;;;;;;0.30;0.30;;;10.00;99.20;9.90;99163.00;;;;4892593;28;92119;-68
2024/04/02 01:19:35;;;;;;;0.20;0.20;;;10.00;99.20;9.80;99168.00;;;;4891721;28;101675;-66
2024/04/02 01:22:01;;;;;;;1.40;0.40;;;9.90;99.30;9.70;99183.00;;;;4894803;28;93597;-66
2024/04/02 01:24:27;;;;;;;0.40;0.40;;;9.80;99.30;9.70;99179.00;;;;4889420;28;94828;-68
2024/04/02 01:26:53;;;;;;;0.47;0.33;;;9.80;99.50;9.60;99188.00;;;;4893368;28;92968;-66
2024/04/02 01:29:19;;;;;;;0.20;0.10;;;9.70;99.60;9.60;99199.00;;;;4890529;28;100142;-66
2024/04/02 01:31:44;;;;;;;0.77;0.23;;;9.60;99.80;9.50;99192.00;;;;4889508;28;121103;-66
2024/04/02 01:34:12;;;;;;;0.17;0.13;;;9.60;99.80;9.40;99188.00;;;;4889850;28;122919;-67
2024/04/02 01:36:38;;;;;;;0.80;0.40;;;9.50;99.90;9.40;99185.00;;;;4891453;28;93119;-66
2024/04/02 01:39:04;;;;;;;0.47;0.20;;;9.50;99.90;9.40;99188.00;;;;4891364;28;103488;-67
2024/04/02 01:41:30;;;;;;;0.20;0.20;;;9.40;99.90;9.30;99195.00;;;;4891530;28;92347;-67
2024/04/02 01:43:55;;;;;;;0.20;0.20;;;9.40;99.90;9.30;99193.00;;;;4891315;28;121092;-66
2024/04/02 01:46:21;;;;;;;0.20;0.20;;;9.40;99.90;9.30;99198.00;;;;4891179;28;104539;-67
2024/04/02 01:48:47;;;;;;;0.20;0.20;;;9.40;99.90;9.30;99203.00;;;;4889550;28;108009;-67
2024/04/02 01:51:12;;;;;;;0.20;0.20;;;9.40;99.90;9.30;99191.00;;;;4892566;28;122011;-65
2024/04/02 01:53:38;;;;;;;0.10;0.10;;;9.40;99.90;9.30;99185.00;;;;4892965;28;122202;-66
2024/04/02 01:56:04;;;;;;;0.20;0.20;;;9.40;99.90;9.20;99190.00;;;;4891298;28;99134;-66
2024/04/02 01:58:29;;;;;;;0.13;0.13;;;9.30;99.90;9.20;99182.00;;;;4890018;28;101505;-66
2024/04/02 02:00:55;;;;;;;4.27;0.20;;;9.30;99.90;9.20;99192.00;;;;4890170;28;122783;-65
2024/04/02 02:03:21;;;;;;;0.30;0.30;;;9.30;99.90;9.10;99189.00;;;;4888603;28;121918;-66
2024/04/02 02:05:47;;;;;;;1.07;0.37;;;9.30;99.90;9.10;99196.00;;;;4893677;28;110225;-68
2024/04/02 02:08:13;;;;;;;0.20;0.20;;;9.20;99.90;9.10;99197.00;;;;4890815;28;93172;-67
2024/04/02 02:10:38;;;;;;;0.40;0.30;;;9.20;99.90;9.10;99186.00;;;;4888735;28;123168;-68
2024/04/02 02:13:07;;;;;;;0.23;0.13;;;9.20;99.90;9.10;99183.00;;;;4886676;28;117815;-68
2024/04/02 02:15:34;;;;;;;0.30;0.30;;;9.10;99.90;9.10;99192.00;;;;4891142;28;92809;-67
2024/04/02 02:18:00;;;;;;;0.30;0.30;;;9.20;99.90;9.10;99187.00;;;;4889632;28;99247;-67
2024/04/02 02:20:25;;;;;;;1.83;0.40;;;9.20;99.90;9.10;99191.00;;;;4892472;28;124898;-67
2024/04/02 02:22:51;;;;;;;0.93;0.40;;;9.20;99.90;9.10;99179.00;;;;4890356;28;120845;-68
2024/04/02 02:25:17;;;;;;;0.10;0.10;;;9.20;99.90;9.10;99184.00;;;;4890595;28;110178;-68
2024/04/02 02:27:42;;;;;;;0.73;0.40;;;9.10;99.90;9.00;99195.00;;;;4892551;28;93220;-68
2024/04/02 02:30:09;;;;;;;0.50;0.40;;;9.10;99.90;9.00;99181.00;;;;4890504;28;121550;-67
2024/04/02 02:32:35;;;;;;;0.20;0.20;;;9.10;99.90;8.90;99177.00;;;;4891770;28;92902;-68
2024/04/02 02:35:02;;;;;;;0.30;0.30;;;9.00;99.90;8.90;99181.00;;;;4893324;28;93031;-66
2024/04/02 02:37:28;;;;;;;0.37;0.37;;;9.00;99.90;8.80;99175.00;;;;4892082;28;94179;-66
2024/04/02 02:39:54;;;;;;;0.23;0.20;;;8.90;99.90;8.80;99186.00;;;;4892030;28;93826;-68
2024/04/02 02:42:21;;;;;;;0.20;0.20;;;8.90;99.90;8.80;99176.00;;;;4889541;28;93033;-67
2024/04/02 02:44:47;;;;;;;0.50;0.43;;;8.90;99.90;8.80;99185.00;;;;4890521;28;93976;-67
2024/04/02 02:47:12;;;;;;;0.53;0.40;;;8.90;99.90;8.80;99187.00;;;;4889838;28;108208;-68
2024/04/02 02:49:38;;;;;;;0.47;0.40;;;8.90;99.90;8.80;99183.00;;;;4889839;28;122373;-67
2024/04/02 02:52:04;;;;;;;0.63;0.37;;;8.90;99.90;8.80;99197.00;;;;4891989;28;100997;-66
2024/04/02 02:54:29;;;;;;;0.20;0.20;;;8.80;99.90;8.70;99186.00;;;;4893105;28;111010;-67
2024/04/02 02:56:55;;;;;;;1.60;0.30;;;8.90;99.90;8.70;99197.00;;;;4892970;28;107412;-67
2024/04/02 02:59:20;;;;;;;0.40;0.30;;;8.90;99.90;8.70;99189.00;;;;4892981;28;123027;-67
2024/04/02 03:01:46;;;;;;;0.43;0.43;;;8.80;99.90;8.70;99184.00;;;;4892231;28;121906;-67
2024/04/02 03:04:12;;;;;;;0.30;0.30;;;8.80;99.90;8.70;99190.00;;;;4893619;28;109439;-67
2024/04/02 03:06:37;;;;;;;0.50;0.50;;;8.80;99.90;8.80;99196.00;;;;4894868;28;108576;-66
2024/04/02 03:09:03;;;;;;;0.40;0.33;;;8.80;99.90;8.80;99203.00;;;;4891019;28;123082;-67
2024/04/02 03:11:29;;;;;;;1.20;0.30;;;8.90;99.90;8.90;99204.00;;;;4891684;28;93611;-67
2024/04/02 03:13:54;;;;;;;0.90;0.50;;;8.90;99.90;8.90;99209.00;;;;4892634;28;109396;-66
2024/04/02 03:16:21;;;;;;;0.77;0.40;;;9.00;99.90;9.00;99204.00;;;;4892179;28;107482;-66
2024/04/02 03:18:47;;;;;;;0.50;0.50;;;9.00;99.90;9.00;99187.00;;;;4894372;28;92281;-66
2024/04/02 03:21:14;;;;;;;0.37;0.37;;;9.10;99.90;9.10;99185.00;;;;4893711;28;93166;-68
2024/04/02 03:23:41;;;;;;;0.20;0.20;;;9.20;99.90;9.10;99190.00;;;;4894042;28;92799;-66
2024/04/02 03:26:07;;;;;;;0.60;0.40;;;9.10;99.90;9.10;99200.00;;;;4890099;28;100519;-68
2024/04/02 03:28:33;;;;;;;0.33;0.30;;;9.10;99.90;9.10;99200.00;;;;4892085;28;93901;-66
2024/04/02 03:31:00;;;;;;;0.43;0.33;;;9.20;99.90;9.10;99189.00;;;;4892802;28;93651;-67
2024/04/02 03:33:27;;;;;;;1.60;0.67;;;9.10;99.90;9.10;99188.00;;;;4892412;28;93079;-67
2024/04/02 03:35:53;;;;;;;0.20;0.20;;;9.20;99.90;9.10;99202.00;;;;4891910;28;92978;-68
2024/04/02 03:38:19;;;;;;;0.80;0.80;;;9.20;99.90;9.10;99200.00;;;;4892151;28;103165;-68
2024/04/02 03:40:45;;;;;;;0.67;0.47;;;9.20;99.90;9.20;99195.00;;;;4891973;28;122509;-67
2024/04/02 03:43:11;;;;;;;0.50;0.40;;;9.30;99.90;9.10;99199.00;;;;4891612;28;92138;-67
2024/04/02 03:45:40;;;;;;;0.10;0.10;;;9.20;99.90;9.10;99205.00;;;;4892669;28;107624;-67
2024/04/02 03:48:08;;;;;;;0.73;0.70;;;9.20;99.90;9.10;99211.00;;;;4893496;28;94248;-68
2024/04/02 03:50:38;;;;;;;0.57;0.50;;;9.70;99.90;9.10;99216.00;;;;4894232;28;94178;-67
2024/04/02 03:53:05;;;;;;;0.53;0.40;;;9.20;99.90;9.20;99213.00;;;;4892639;28;99949;-66
2024/04/02 03:55:37;;;;;;;1.23;0.37;;;9.20;99.90;9.20;99211.00;;;;4890855;28;101169;-65
2024/04/02 03:58:04;;;;;;;0.80;0.20;;;9.30;99.90;9.20;99220.00;;;;4892080;28;124449;-66
2024/04/02 04:00:31;;;;;;;0.33;0.33;;;9.30;99.90;9.30;99220.00;;;;4891012;28;93869;-66
2024/04/02 04:02:57;;;;;;;0.50;0.50;;;9.30;99.90;9.30;99231.00;;;;4892529;28;92876;-66
2024/04/02 04:05:23;;;;;;;1.67;0.47;;;9.40;99.90;9.40;99235.00;;;;4893321;28;108921;-67
2024/04/02 04:07:49;;;;;;;0.30;0.27;;;9.40;99.90;9.50;99234.00;;;;4892172;28;93207;-67
2024/04/02 04:10:17;;;;;;;0.40;0.30;;;9.50;99.90;9.50;99236.00;;;;4892161;28;93354;-67
2024/04/02 04:12:44;;;;;;;0.50;0.50;;;9.60;99.90;9.60;99244.00;;;;4891464;28;92829;-67
2024/04/02 04:15:10;;;;;;;0.40;0.40;;;9.60;99.90;9.60;99241.00;;;;4892684;28;94283;-66
2024/04/02 04:17:35;;;;;;;0.60;0.60;;;9.70;99.90;9.70;99238.00;;;;4892198;28;123632;-66
2024/04/02 04:20:01;;;;;;;0.73;0.47;;;9.60;99.90;9.70;99245.00;;;;4890628;28;121697;-67
2024/04/02 04:22:27;;;;;;;0.60;0.40;;;9.70;99.90;9.80;99241.00;;;;4891462;28;111634;-67
2024/04/02 04:25:03;;;;;;;1.77;0.50;;;9.80;99.90;9.80;99248.00;;;;4893733;28;109023;-67
2024/04/02 04:27:32;;;;;;;0.40;0.40;;;9.80;99.90;9.90;99253.00;;;;4891051;28;93637;-66
2024/04/02 04:30:01;;;;;;;0.93;0.37;;;9.90;99.90;9.90;99247.00;;;;4893078;28;92866;-67
2024/04/02 04:32:27;;;;;;;1.13;0.63;;;9.90;99.90;10.00;99248.00;;;;4893004;28;92694;-67
2024/04/02 04:34:53;;;;;;;0.20;0.20;;;10.00;99.90;9.90;99236.00;;;;4893381;28;108336;-68
2024/04/02 04:37:19;;;;;;;1.37;0.90;;;10.00;99.90;9.90;99246.00;;;;4892813;28;120780;-67
2024/04/02 04:39:45;;;;;;;0.40;0.37;;;10.00;99.90;9.90;99238.00;;;;4890053;28;121693;-68
2024/04/02 04:42:10;;;;;;;1.40;0.80;;;10.00;99.90;9.80;99253.00;;;;4894154;28;110020;-67
2024/04/02 04:44:36;;;;;;;1.90;0.77;;;9.90;99.90;9.80;99251.00;;;;4892964;28;109102;-67
2024/04/02 04:47:02;;;;;;;0.77;0.47;;;9.90;99.90;9.90;99250.00;;;;4890450;28;121925;-67
2024/04/02 04:49:28;;;;;;;0.40;0.40;;;9.90;99.90;9.90;99257.00;;;;4893139;28;94072;-68
2024/04/02 04:51:54;;;;;;;0.47;0.40;;;10.00;99.90;9.90;99244.00;;;;4890398;28;110549;-68
2024/04/02 04:54:20;;;;;;;0.93;0.43;;;9.90;99.90;9.90;99244.00;;;;4892317;28;93029;-67
2024/04/02 04:56:45;;;;;;;0.60;0.60;;;9.90;99.90;9.90;99260.00;;;;4892190;28;121457;-67
2024/04/02 04:59:11;;;;;;;1.50;0.30;;;10.00;99.90;9.80;99255.00;;;;4890561;28;121858;-67
2024/04/02 05:01:36;;;;;;;0.40;0.40;;;9.90;99.90;9.80;99262.00;;;;4892678;28;109726;-67
2024/04/02 05:04:02;;;;;;;0.90;0.63;;;9.90;99.90;9.80;99253.00;;;;4891567;28;107952;-67
2024/04/02 05:06:32;;;;;;;1.40;0.60;;;9.90;99.90;9.80;99261.00;;;;4889615;28;122368;-67
2024/04/02 05:08:58;;;;;;;0.53;0.47;;;9.80;99.90;9.80;99269.00;;;;4894238;28;93486;-67
2024/04/02 05:11:23;;;;;;;0.30;0.30;;;9.80;99.90;9.80;99262.00;;;;4891767;28;92966;-67
2024/04/02 05:13:50;;;;;;;0.33;0.33;;;9.80;99.90;9.90;99262.00;;;;4893676;28;93072;-66
2024/04/02 05:16:16;;;;;;;0.50;0.50;;;9.90;99.90;9.90;99276.00;;;;4875844;28;94359;-67
2024/04/02 05:18:41;;;;;;;0.30;0.30;;;9.90;99.90;10.00;99261.00;;;;4887249;28;122239;-66
2024/04/02 05:21:07;;;;;;;0.70;0.40;;;10.00;99.90;10.00;99256.00;;;;4890691;28;93358;-66
2024/04/02 05:23:32;;;;;;;1.37;0.60;;;10.00;99.90;10.10;99254.00;;;;4888553;28;107907;-67
2024/04/02 05:25:59;;;;;;;0.40;0.40;;;10.10;99.90;10.10;99256.00;;;;4883624;28;121988;-67
2024/04/02 05:28:25;;;;;;;0.57;0.57;;;10.10;99.90;10.10;99254.00;;;;4885568;28;94024;-67
2024/04/02 05:30:51;;;;;;;0.20;0.20;;;10.10;99.90;10.10;99265.00;;;;4885556;28;111278;-67
2024/04/02 05:33:16;;;;;;;4.13;0.60;;;10.20;99.90;10.10;99258.00;;;;4885901;28;93187;-67
2024/04/02 05:35:42;;;;;;;0.60;0.40;;;10.20;99.90;10.20;99254.00;;;;4889233;28;122714;-67
2024/04/02 05:38:08;;;;;;;1.90;0.87;;;10.30;99.90;10.20;99264.00;;;;4887506;28;122897;-67
2024/04/02 05:40:33;;;;;;;0.40;0.40;;;10.20;99.90;10.20;99270.00;;;;4888995;28;93003;-67
2024/04/02 05:42:59;;;;;;;1.27;0.50;;;10.20;99.90;10.20;99275.00;;;;4886440;28;108836;-66
2024/04/02 05:45:25;;;;;;;2.20;0.30;;;10.20;99.90;10.20;99279.00;;;;4886403;28;122130;-67
2024/04/02 05:47:51;;;;;;;0.97;0.53;;;10.20;99.90;10.20;99269.00;;;;4886794;28;122293;-67
2024/04/02 05:50:17;;;;;;;2.63;0.77;;;10.20;99.90;10.20;99281.00;;;;4885982;28;109731;-67
2024/04/02 05:52:43;;;;;;;2.60;0.67;;;10.20;99.90;10.20;99293.00;;;;4887788;28;95008;-67
2024/04/02 05:55:09;;;;;;;0.93;0.40;;;10.20;99.90;10.20;99277.00;;;;4888797;28;114423;-67
2024/04/02 05:57:35;;;;;;;0.40;0.40;;;10.30;99.90;10.30;99285.00;;;;4886005;28;112814;-67
2024/04/02 06:00:05;;;;;;;0.50;0.50;;;10.30;99.90;10.40;99295.00;;;;4887989;28;93032;-67
2024/04/02 06:02:31;;;;;;;0.27;0.27;;;10.40;99.90;10.60;99299.00;;;;4887370;28;93091;-67
2024/04/02 06:04:58;;;;;;;0.40;0.40;;;10.50;99.90;10.70;99299.00;;;;4887448;28;93522;-67
2024/04/02 06:07:23;;;;;;;0.73;0.40;;;10.70;99.90;10.90;99297.00;;;;4889064;28;93848;-67
2024/04/02 06:09:49;;;;;;;1.43;0.53;;;10.80;99.90;11.00;99304.00;;;;4887200;28;98795;-68
2024/04/02 06:12:15;;;;;;;4.73;0.50;;;11.00;99.90;11.10;99308.00;;;;4890742;28;93024;-67
2024/04/02 06:14:41;;;;;;;0.53;0.53;;;11.10;99.90;11.10;99320.00;;;;4886538;28;123712;-66
2024/04/02 06:17:07;;;;;;;0.40;0.40;;;11.20;99.90;11.10;99322.00;;;;4885133;28;94472;-68
2024/04/02 06:19:33;;;;;;;0.30;0.30;;;11.10;99.90;11.10;99318.00;;;;4889598;28;93345;-67
2024/04/02 06:21:59;;;;;;;0.47;0.40;;;11.20;99.90;11.10;99313.00;;;;4888849;28;93065;-67
2024/04/02 06:24:26;;;;;;;0.30;0.30;;;11.20;99.90;11.10;99314.00;;;;4884808;28;99546;-67
2024/04/02 06:26:52;;;;;;;2.00;0.47;;;11.20;99.90;11.20;99314.00;;;;4887117;28;115666;-67
2024/04/02 06:29:18;;;;;;;1.03;0.60;;;11.60;99.90;11.20;99317.00;;;;4887018;28;101241;-67
2024/04/02 06:31:44;;;;;;;0.97;0.60;;;11.20;99.90;11.20;99329.00;;;;4889284;28;93077;-67
2024/04/02 06:34:10;;;;;;;0.57;0.57;;;11.30;99.90;11.20;99328.00;;;;4888945;28;109960;-67
2024/04/02 06:36:36;;;;;;;0.20;0.20;;;11.30;99.90;11.20;99330.00;;;;4890052;28;121900;-67
2024/04/02 06:39:02;;;;;;;0.50;0.50;;;11.20;99.90;11.20;99328.00;;;;4888330;28;111609;-67
2024/04/02 06:41:29;;;;;;;0.50;0.50;;;11.20;99.90;11.40;99317.00;;;;4892633;28;94164;-67
2024/04/02 06:43:54;;;;;;;0.30;0.30;;;11.30;99.90;11.50;99319.00;;;;4889797;28;110839;-67
2024/04/02 06:46:20;;;;;;;1.17;0.67;;;11.50;99.90;11.50;99326.00;;;;4889643;28;94129;-67
2024/04/02 06:48:46;;;;;;;1.87;0.40;;;11.60;99.90;11.60;99324.00;;;;4890504;28;97412;-68
2024/04/02 06:51:13;;;;;;;0.60;0.30;;;11.60;99.90;11.80;99320.00;;;;4889679;28;93099;-67
2024/04/02 06:53:39;;;;;;;0.70;0.70;;;11.70;99.90;12.00;99327.00;;;;4889171;28;94244;-67
2024/04/02 06:56:06;;;;;;;0.87;0.50;;;11.90;99.90;12.20;99323.00;;;;4890965;28;97771;-67
2024/04/02 06:58:32;;;;;;;1.70;0.73;;;12.10;99.90;12.50;99340.00;;;;4889984;28;92244;-67
2024/04/02 07:00:59;;;;;;;1.30;0.30;;;12.40;99.90;12.80;99341.00;;;;4883076;28;94287;-66
2024/04/02 07:03:25;;;;;;;0.33;0.33;;;12.70;99.90;12.90;99334.00;;;;4887233;28;94716;-68
2024/04/02 07:05:52;;;;;;;0.70;0.40;;;12.90;99.90;13.10;99347.00;;;;4885930;28;95542;-67
2024/04/02 07:08:24;;;;;;;0.77;0.70;;;13.00;99.90;13.20;99343.00;;;;4889205;28;100066;-67
2024/04/02 07:11:03;;;;;;;0.67;0.47;;;13.20;99.90;13.30;99351.00;;;;4891063;28;92914;-67
2024/04/02 07:13:33;;;;;;;0.20;0.20;;;13.30;99.90;13.50;99342.00;;;;4902573;28;93409;-67
2024/04/02 07:16:01;;;;;;;0.57;0.50;;;13.40;99.00;13.50;99359.00;;;;4888243;28;93862;-67
2024/04/02 07:18:32;;;;;;;0.30;0.30;;;13.50;99.00;13.70;99365.00;;;;4890241;28;93026;-67
2024/04/02 07:21:05;;;;;;;0.50;0.50;;;13.70;98.40;13.80;99352.00;;;;4892979;28;92925;-67
2024/04/02 07:23:31;;;;;;;0.40;0.40;;;13.80;98.20;14.00;99345.00;;;;4889557;28;100033;-67
2024/04/02 07:25:57;;;;;;;0.30;0.30;;;14.00;97.50;14.10;99352.00;;;;4888465;28;109804;-67
2024/04/02 07:28:24;;;;;;;0.60;0.47;;;14.10;96.90;14.00;99348.00;;;;4890194;28;92881;-67
2024/04/02 07:30:50;;;;;;;1.40;0.57;;;14.10;97.00;14.00;99350.00;;;;4885275;28;94170;-66
2024/04/02 07:33:16;;;;;;;0.90;0.57;;;14.50;96.60;13.90;99342.00;;;;4887566;28;122599;-67
2024/04/02 07:35:43;;;;;;;2.63;0.30;;;13.90;96.40;13.70;99361.00;;;;4889100;28;93008;-66
2024/04/02 07:38:12;;;;;;;0.65;0.40;;;13.80;96.40;13.70;99373.00;;;;4888818;28;93039;-66
2024/04/02 07:40:38;;;;;;;4.07;0.50;;;13.70;96.80;13.70;99361.00;;;;4889208;28;94247;-66
2024/04/02 07:43:06;;;;;;;0.55;0.50;;;13.70;97.00;13.80;99360.00;;;;4887420;28;105535;-66
2024/04/02 07:45:35;;;;;;;0.63;0.30;;;13.80;96.80;13.90;99367.00;;;;4887038;28;92995;-65
2024/04/02 07:48:01;;;;;;;0.40;0.30;;;13.90;96.60;14.00;99353.00;;;;4889116;28;92363;-66
2024/04/02 07:50:37;;;;;;;1.17;0.50;;;13.90;96.40;14.10;99362.00;;;;4891347;28;100270;-67
2024/04/02 07:53:03;;;;;;;0.40;0.40;;;14.10;96.00;14.40;99375.00;;;;4891117;28;93863;-67
2024/04/02 07:55:29;;;;;;;0.52;0.38;;;14.30;95.30;14.40;99367.00;;;;4888894;28;95643;-67
2024/04/02 07:57:54;;;;;;;0.30;0.20;;;14.40;94.80;14.30;99382.00;;;;4887183;28;106231;-66
2024/04/02 08:00:20;;;;;;;0.30;0.30;;;14.30;94.80;14.30;99377.00;;;;4885716;28;92947;-67
2024/04/02 08:02:46;;;;;;;0.90;0.45;;;14.40;94.70;14.40;99388.00;;;;4886970;28;123407;-66
2024/04/02 08:05:13;;;;;;;0.38;0.38;;;14.40;94.50;14.50;99385.00;;;;4889641;28;93843;-66
2024/04/02 08:07:40;;;;;;;3.20;0.38;;;14.50;94.20;14.50;99369.00;;;;4886104;28;93493;-66
2024/04/02 08:10:06;;;;;;;0.52;0.50;;;14.50;93.80;14.50;99379.00;;;;4889825;28;101150;-66
2024/04/02 08:12:32;;;;;;;2.35;0.43;;;14.60;93.60;14.70;99389.00;;;;4890478;28;114307;-65
2024/04/02 08:14:57;;;;;;;0.30;0.30;;;14.60;93.70;14.80;99380.00;;;;4888498;28;121226;-65
2024/04/02 08:17:23;;;;;;;9.15;2.45;;;14.80;93.30;14.90;99390.00;;;;4888374;28;110235;-65
2024/04/02 08:19:49;;;;;;;1.50;0.68;;;14.90;93.20;15.00;99393.00;;;;4889147;28;108061;-66
2024/04/02 08:22:16;;;;;;;0.52;0.40;;;15.00;92.50;14.90;99392.00;;;;4888061;28;122613;-68
2024/04/02 08:24:41;;;;;;;0.50;0.50;;;15.00;92.50;15.00;99400.00;;;;4888887;28;93918;-68
2024/04/02 08:27:07;;;;;;;1.23;0.70;;;15.00;92.50;15.10;99401.00;;;;4887820;28;108055;-67
2024/04/02 08:29:33;;;;;;;10.13;2.30;;;15.10;92.40;15.10;99404.00;;;;4886649;28;93059;-66
2024/04/02 08:31:59;;;;;;;0.63;0.40;;;15.10;91.30;14.90;99417.00;;;;4886868;28;93637;-67
2024/04/02 08:34:25;;;;;;;0.88;0.47;;;14.90;91.40;14.70;99418.00;;;;4888382;28;101586;-67
2024/04/02 08:36:51;;;;;;;1.25;0.30;;;14.70;91.50;14.60;99420.00;;;;4889326;28;92282;-67
2024/04/02 08:39:17;;;;;;;0.52;0.35;;;14.60;91.70;14.50;99427.00;;;;4888505;28;108569;-67
2024/04/02 08:41:42;;;;;;;0.50;0.50;;;14.50;92.00;14.50;99414.00;;;;4888514;28;93909;-67
2024/04/02 08:44:08;;;;;;;2.20;0.65;;;14.50;92.20;14.50;99409.00;;;;4888437;28;94213;-67
2024/04/02 08:46:34;;;;;;;0.30;0.30;;;14.50;92.20;14.60;99424.00;;;;4888157;28;93208;-68
2024/04/02 08:49:00;;;;;;;1.27;0.25;;;14.50;92.10;14.60;99421.00;;;;4889438;28;93153;-68
2024/04/02 08:51:32;;;;;;;2.00;0.77;;;14.60;92.10;14.80;99421.00;;;;4889299;28;122469;-67
2024/04/02 08:53:58;;;;;;;0.45;0.30;;;14.70;91.90;14.90;99406.00;;;;4885492;28;93753;-67
2024/04/02 08:56:24;;;;;;;2.05;0.68;;;14.80;91.40;15.00;99430.00;;;;4887408;28;93133;-67
2024/04/02 08:58:52;;;;;;;0.77;0.52;;;14.90;91.20;15.00;99424.00;;;;4887446;28;108695;-67
2024/04/02 09:01:19;;;;;;;1.15;0.85;;;15.00;91.50;15.20;99426.00;;;;4889117;28;93422;-67
2024/04/02 09:03:48;;;;;;;0.77;0.45;;;15.10;91.40;15.40;99428.00;;;;4885689;28;114895;-68
2024/04/02 09:06:14;;;;;;;1.38;0.68;;;15.30;91.40;15.70;99418.00;;;;4887991;28;93188;-67
2024/04/02 09:08:46;;;;;;;1.98;0.70;;;15.50;91.20;15.70;99423.00;;;;4888627;28;93976;-65
2024/04/02 09:11:14;;;;;;;0.38;0.38;;;15.60;90.00;15.60;99429.00;;;;4901085;28;94354;-66
2024/04/02 09:13:40;;;;;;;1.95;0.57;;;15.60;89.10;15.40;99445.00;;;;4887435;28;94244;-65
2024/04/02 09:16:07;;;;;;;0.95;0.60;;;15.50;89.40;15.30;99437.00;;;;4888170;28;109969;-65
2024/04/02 09:18:37;;;;;;;1.02;0.40;;;15.30;89.70;15.10;99440.00;;;;4889346;28;93333;-65
2024/04/02 09:21:03;;;;;;;0.80;0.60;;;15.10;90.00;15.10;99443.00;;;;4886428;28;94170;-66
2024/04/02 09:23:30;;;;;;;1.75;0.40;;;15.10;90.20;15.10;99442.00;;;;4875972;28;94450;-66
2024/04/02 09:25:56;;;;;;;1.35;0.50;;;15.10;90.30;15.20;99436.00;;;;4888034;28;93677;-65
2024/04/02 09:28:22;;;;;;;1.70;0.77;;;15.20;90.40;15.40;99431.00;;;;4888787;28;101463;-66
2024/04/02 09:30:48;;;;;;;1.33;0.60;;;15.30;90.00;15.40;99448.00;;;;4886848;28;112474;-65
2024/04/02 09:33:17;;;;;;;0.73;0.22;;;15.30;88.90;15.40;99449.00;;;;4886238;28;122546;-66
2024/04/02 09:36:00;;;;;;;2.40;0.47;;;15.30;88.70;15.30;99458.00;;;;4890203;28;93110;-68
2024/04/02 09:38:27;;;;;;;2.78;0.52;;;15.30;88.40;15.40;99455.00;;;;4887075;28;93300;-67
2024/04/02 09:40:54;;;;;;;2.75;0.50;;;15.30;88.60;15.40;99452.00;;;;4884652;28;93192;-67
2024/04/02 09:43:20;;;;;;;2.40;0.57;;;15.30;88.30;15.50;99457.00;;;;4884320;28;102153;-67
2024/04/02 09:45:48;;;;;;;0.77;0.60;;;15.40;87.50;15.50;99452.00;;;;4886406;28;105850;-67
2024/04/02 09:48:14;;;;;;;0.30;0.30;;;15.40;86.50;15.40;99448.00;;;;4885231;28;93045;-67
2024/04/02 09:50:43;;;;;;;0.45;0.38;;;15.40;87.10;15.40;99454.00;;;;4887173;28;123772;-67
2024/04/02 09:53:10;;;;;;;0.28;0.28;;;15.40;86.10;15.30;99457.00;;;;4883587;28;93440;-67
2024/04/02 09:55:36;;;;;;;0.77;0.32;;;15.30;86.30;15.40;99444.00;;;;4885235;28;93345;-67
2024/04/02 09:58:02;;;;;;;4.22;0.40;;;15.30;86.80;15.50;99470.00;;;;4886467;28;94150;-67
2024/04/02 10:00:31;;;;;;;0.63;0.63;;;15.40;86.50;15.60;99449.00;;;;4886453;28;114884;-67
2024/04/02 10:03:01;;;;;;;1.17;0.40;;;15.50;86.80;15.70;99471.00;;;;4886176;28;97199;-67
2024/04/02 10:05:26;;;;;;;2.00;0.60;;;15.50;85.30;15.70;99466.00;;;;4887950;28;111471;-67
2024/04/02 10:07:52;;;;;;;0.30;0.30;;;15.60;85.00;15.70;99452.00;;;;4895214;28;93416;-67
2024/04/02 10:10:18;;;;;;;0.73;0.73;;;15.60;84.90;15.80;99449.00;;;;4890574;28;94170;-67
2024/04/02 10:12:52;;;;;;;2.45;0.43;;;15.60;84.80;16.20;99461.00;;;;4890360;28;119886;-67
2024/04/02 10:15:19;;;;;;;8.75;0.47;;;15.90;83.70;16.50;99443.00;;;;4894793;28;92411;-67
2024/04/02 10:17:44;;;;;;;0.82;0.60;;;16.20;82.30;16.70;99457.00;;;;4894913;28;93334;-67
2024/04/02 10:20:32;;;;;;;2.42;0.98;;;16.50;81.90;16.90;99464.00;;;;4892543;28;93393;-67
2024/04/02 10:22:59;;;;;;;1.77;0.65;;;16.60;81.00;16.90;99465.00;;;;4893164;28;94102;-68
2024/04/02 10:25:28;;;;;;;4.65;0.50;;;16.70;79.90;16.90;99484.00;;;;4894972;28;93011;-67
2024/04/02 10:27:59;;;;;;;0.77;0.28;;;16.70;79.70;16.90;99464.00;;;;4890320;28;93075;-66
2024/04/02 10:30:27;;;;;;;0.40;0.30;;;16.70;78.30;16.90;99470.00;;;;4890895;28;94309;-67
2024/04/02 10:32:56;;;;;;;0.32;0.28;;;16.80;78.40;17.00;99481.00;;;;4893650;28;93688;-67
2024/04/02 10:35:26;;;;;;;0.60;0.38;;;16.80;77.80;16.90;99482.00;;;;4893257;28;92975;-67
2024/04/02 10:37:56;;;;;;;3.30;1.02;;;16.80;76.80;16.90;99468.00;;;;4892714;28;99595;-67
2024/04/02 10:40:27;;;;;;;0.80;0.55;;;16.80;76.70;16.80;99468.00;;;;4893062;28;92938;-67
2024/04/02 10:42:53;;;;;;;5.82;0.45;;;16.70;76.00;16.60;99436.00;;;;4892505;28;93107;-67
2024/04/02 10:45:20;;;;;;;2.17;0.20;;;16.60;75.80;16.60;99489.00;;;;4891788;28;109945;-67
2024/04/02 10:47:53;;;;;;;1.85;0.47;;;16.60;76.70;16.70;99476.00;;;;4893242;28;94045;-67
2024/04/02 10:50:24;;;;;;;0.75;0.57;;;16.60;77.20;16.80;99499.00;;;;4894148;28;94845;-67
2024/04/02 10:52:51;;;;;;;0.57;0.30;;;16.70;77.10;17.00;99480.00;;;;4892677;28;93566;-67
2024/04/02 10:55:17;;;;;;;13.38;2.20;;;16.80;76.50;17.20;99479.00;;;;4894270;28;93201;-67